Terminal Aerodrome Forecast
Issued by NWS

Home | Current Version | Previous Version | Text Only | Print | Product List | Glossary On
Versions: 1 2 3 4 5 6 7 8 9 10 11 12 13 14 15 16 17 18 19 20 21 22 23 24 25 26 27 28 29
000
FTUS45 KGJT 020533
TAFMTJ
TAF
KMTJ 020533Z 0206/0306 32010G15KT P6SM VCSH SCT015 BKN035
      TEMPO 0206/0207 VRB10G20KT -SHRA BKN015 OVC035
     FM020700 15005KT P6SM SCT040 BKN090
     FM020830 15005KT P6SM FEW100
     FM021100 14004KT P6SM VCFG SKC
     FM021600 35005KT P6SM SCT100
     FM030200 15005KT P6SM SKC=

USA.gov is the U.S. government's official web portal to all federal, state and local government web resources and services.